Time;durP1;ratioP1;P1;durP2;ratioP2;P2;SDS_P1;SDS_P2;PMS_P1;PMS_P2;Temp;Humidity;BMP_temperature;BMP_pressure;BME280_temperature;BME280_humidity;BME280_pressure;Samples;Min_cycle;Max_cycle;Signal;HPM_P1;HPM_P2
2021/08/07 00:00:36;;;;;;;2.33;0.63;;;17.40;99.90;;;;;;5087040;28;20055;-77
2021/08/07 00:03:03;;;;;;;9.05;4.43;;;17.40;99.90;;;;;;5071851;28;20027;-76
2021/08/07 00:05:29;;;;;;;5.35;1.98;;;17.40;99.90;;;;;;5070233;28;20056;-76
2021/08/07 00:07:55;;;;;;;3.83;1.10;;;17.40;99.90;;;;;;5071171;28;20493;-75
2021/08/07 00:10:23;;;;;;;2.33;0.90;;;17.30;99.90;;;;;;5105428;28;20046;-76
2021/08/07 00:12:50;;;;;;;3.35;0.82;;;17.30;99.90;;;;;;5088896;28;20034;-76
2021/08/07 00:15:17;;;;;;;3.60;0.75;;;17.30;99.90;;;;;;5085603;28;20039;-75
2021/08/07 00:17:43;;;;;;;3.65;1.02;;;17.30;99.90;;;;;;5106726;28;20044;-76
2021/08/07 00:20:10;;;;;;;2.88;0.70;;;17.30;99.90;;;;;;5088336;28;20581;-77
2021/08/07 00:22:37;;;;;;;2.03;0.50;;;17.30;99.90;;;;;;5104466;28;20035;-75
2021/08/07 00:25:04;;;;;;;3.38;0.70;;;17.30;99.90;;;;;;5087248;28;20572;-75
2021/08/07 00:27:31;;;;;;;3.30;0.90;;;17.30;99.90;;;;;;5106297;28;20043;-75
2021/08/07 00:29:57;;;;;;;3.05;0.85;;;17.30;99.90;;;;;;5070995;28;20035;-75
2021/08/07 00:32:24;;;;;;;3.72;0.80;;;17.30;99.90;;;;;;5084464;28;20035;-75
2021/08/07 00:35:06;;;;;;;3.85;1.02;;;17.30;99.90;;;;;;5072967;28;20042;-75
2021/08/07 00:37:34;;;;;;;1.83;0.70;;;17.30;99.90;;;;;;5068550;28;20052;-75
2021/08/07 00:40:06;;;;;;;4.18;0.82;;;17.30;99.90;;;;;;5069733;28;20062;-75
2021/08/07 00:42:33;;;;;;;2.53;0.70;;;17.30;99.90;;;;;;5084703;28;20043;-75
2021/08/07 00:45:07;;;;;;;4.43;1.15;;;17.20;99.90;;;;;;5066759;28;20043;-75
2021/08/07 00:47:36;;;;;;;2.25;0.80;;;17.20;99.90;;;;;;5087708;28;20039;-75
2021/08/07 00:50:06;;;;;;;1.80;0.60;;;17.20;99.90;;;;;;5070019;28;20039;-75
2021/08/07 00:52:37;;;;;;;4.13;0.90;;;17.10;99.90;;;;;;5067297;28;20059;-75
2021/08/07 00:55:05;;;;;;;2.00;0.60;;;17.10;99.90;;;;;;5053099;28;20122;-75
2021/08/07 00:57:33;;;;;;;2.70;0.80;;;17.10;99.90;;;;;;5068972;28;20044;-75
2021/08/07 01:00:00;;;;;;;2.60;0.80;;;17.00;99.90;;;;;;5087350;28;20036;-75
2021/08/07 01:02:27;;;;;;;3.53;0.77;;;17.00;99.90;;;;;;5047844;28;20048;-75
2021/08/07 01:05:08;;;;;;;3.10;0.80;;;17.00;99.90;;;;;;5049529;28;20055;-75
2021/08/07 01:08:05;;;;;;;2.95;0.80;;;17.00;99.90;;;;;;5081884;28;20044;-75
2021/08/07 01:10:46;;;;;;;2.28;0.98;;;17.00;99.90;;;;;;5080738;28;20040;-75
2021/08/07 01:13:19;;;;;;;2.58;0.90;;;16.90;99.90;;;;;;5084419;28;20036;-75
2021/08/07 01:16:20;;;;;;;2.60;1.00;;;16.90;99.90;;;;;;5065684;28;20032;-75
2021/08/07 01:18:50;;;;;;;3.42;0.80;;;16.90;99.90;;;;;;5083095;28;20486;-75
2021/08/07 01:21:24;;;;;;;3.30;0.80;;;16.90;99.90;;;;;;5081316;28;20028;-75
2021/08/07 01:24:02;;;;;;;4.50;1.40;;;16.90;99.90;;;;;;5082409;28;20039;-74
2021/08/07 01:27:02;;;;;;;5.90;1.20;;;16.90;99.90;;;;;;5083507;28;20391;-75
2021/08/07 01:29:30;;;;;;;3.00;1.23;;;16.90;99.90;;;;;;5066670;28;20043;-75
2021/08/07 01:32:02;;;;;;;2.05;0.73;;;16.90;99.90;;;;;;5049445;28;20043;-74
2021/08/07 01:34:40;;;;;;;3.17;1.00;;;16.90;99.90;;;;;;5082073;28;20043;-75
2021/08/07 01:37:10;;;;;;;3.85;1.40;;;17.00;99.90;;;;;;5065395;28;20036;-75
2021/08/07 01:39:57;;;;;;;3.50;1.20;;;16.90;99.90;;;;;;5072315;28;20051;-78
2021/08/07 01:42:34;;;;;;;4.95;1.63;;;17.00;99.90;;;;;;5081735;28;20047;-79
2021/08/07 01:45:05;;;;;;;5.10;1.08;;;17.00;99.90;;;;;;5066936;28;20398;-79
2021/08/07 01:47:48;;;;;;;3.55;1.45;;;17.00;99.90;;;;;;5049937;28;20052;-78
2021/08/07 01:50:43;;;;;;;3.95;1.77;;;17.00;99.90;;;;;;5082310;28;20380;-79
2021/08/07 01:53:18;;;;;;;2.60;1.15;;;16.90;99.90;;;;;;5083687;28;20039;-79
2021/08/07 01:56:15;;;;;;;4.07;1.33;;;17.00;99.90;;;;;;5082202;28;20517;-78
2021/08/07 01:58:50;;;;;;;4.25;1.40;;;17.00;99.90;;;;;;5072787;28;20036;-78
2021/08/07 02:01:24;;;;;;;3.45;1.55;;;17.00;99.90;;;;;;5081417;28;20048;-78
2021/08/07 02:03:54;;;;;;;2.05;1.10;;;16.90;99.90;;;;;;5083382;28;20039;-79
2021/08/07 02:06:22;;;;;;;2.17;0.95;;;16.90;99.90;;;;;;5080467;28;20044;-78
2021/08/07 02:08:51;;;;;;;3.40;1.35;;;16.90;99.90;;;;;;5083183;28;20032;-78
2021/08/07 02:11:26;;;;;;;4.13;1.58;;;16.80;99.90;;;;;;5079665;28;20063;-78
2021/08/07 02:13:57;;;;;;;2.85;1.38;;;16.80;99.90;;;;;;5065513;28;20047;-79
2021/08/07 02:16:26;;;;;;;4.75;1.55;;;16.70;99.90;;;;;;5064015;28;20780;-78
2021/08/07 02:18:56;;;;;;;3.05;1.55;;;16.70;99.90;;;;;;5065003;28;20578;-78
2021/08/07 02:21:30;;;;;;;3.97;1.60;;;16.60;99.90;;;;;;5064294;28;20031;-78
2021/08/07 02:23:57;;;;;;;2.88;1.33;;;16.60;99.90;;;;;;5082324;28;20032;-78
2021/08/07 02:26:26;;;;;;;2.70;1.52;;;16.50;99.90;;;;;;5081443;28;20745;-79
2021/08/07 02:29:06;;;;;;;3.50;1.40;;;16.50;99.90;;;;;;5065779;28;20039;-78
2021/08/07 02:31:37;;;;;;;2.85;1.38;;;16.40;99.90;;;;;;5078064;28;20039;-78
2021/08/07 02:34:07;;;;;;;4.38;1.05;;;16.30;99.90;;;;;;5081202;28;20039;-78
2021/08/07 02:36:35;;;;;;;3.17;1.33;;;16.30;99.90;;;;;;5069448;28;20047;-78
2021/08/07 02:39:09;;;;;;;3.83;1.27;;;16.30;99.90;;;;;;5064159;28;20036;-78
2021/08/07 02:41:37;;;;;;;6.90;1.67;;;16.20;99.90;;;;;;5080389;28;20047;-78
2021/08/07 02:44:05;;;;;;;5.80;1.42;;;16.10;99.90;;;;;;5046549;28;20553;-78
2021/08/07 02:46:32;;;;;;;5.07;1.50;;;16.10;99.90;;;;;;5082114;28;20581;-78
2021/08/07 02:49:00;;;;;;;4.97;1.40;;;16.10;99.90;;;;;;5082837;28;20055;-79
2021/08/07 02:51:27;;;;;;;3.80;2.08;;;16.00;99.90;;;;;;5063909;28;20056;-75
2021/08/07 02:53:57;;;;;;;3.67;1.65;;;16.00;99.90;;;;;;5065966;28;20770;-75
2021/08/07 02:56:25;;;;;;;5.13;1.60;;;15.90;99.90;;;;;;5063297;28;20047;-75
2021/08/07 02:58:52;;;;;;;4.00;1.45;;;15.90;99.90;;;;;;5047988;28;20040;-75
2021/08/07 03:01:20;;;;;;;3.60;1.20;;;15.90;99.90;;;;;;5063587;28;20052;-75
2021/08/07 03:03:52;;;;;;;2.75;1.45;;;15.90;99.90;;;;;;5081140;28;20036;-75
2021/08/07 03:06:19;;;;;;;3.50;1.48;;;15.80;99.90;;;;;;5063540;28;20780;-75
2021/08/07 03:08:46;;;;;;;3.80;1.20;;;15.80;99.90;;;;;;5065832;28;20039;-75
2021/08/07 03:11:14;;;;;;;4.18;1.48;;;15.80;99.90;;;;;;5086935;28;20036;-75
2021/08/07 03:13:42;;;;;;;4.75;2.05;;;15.80;99.90;;;;;;5051707;28;20384;-75
2021/08/07 03:16:08;;;;;;;4.18;1.10;;;15.80;99.90;;;;;;5068531;28;20790;-76
2021/08/07 03:18:41;;;;;;;4.07;1.33;;;15.80;99.90;;;;;;5053490;28;20040;-76
2021/08/07 03:21:09;;;;;;;4.63;1.42;;;15.90;99.90;;;;;;5033317;28;20032;-76
2021/08/07 03:23:44;;;;;;;4.05;1.20;;;15.90;99.90;;;;;;5071271;28;20087;-76
2021/08/07 03:26:12;;;;;;;3.40;1.60;;;15.80;99.90;;;;;;5069058;28;20036;-76
2021/08/07 03:28:39;;;;;;;8.27;2.88;;;15.80;99.90;;;;;;5084991;28;20403;-76
2021/08/07 03:31:08;;;;;;;5.07;2.05;;;15.80;99.90;;;;;;5086122;28;20040;-75
2021/08/07 03:33:37;;;;;;;6.65;1.58;;;15.80;99.90;;;;;;5068391;28;20043;-80
2021/08/07 03:36:06;;;;;;;4.65;1.58;;;15.70;99.90;;;;;;5086207;28;20570;-79
2021/08/07 03:38:32;;;;;;;3.97;1.38;;;15.70;99.90;;;;;;5066789;28;20060;-80
2021/08/07 03:40:59;;;;;;;3.85;1.98;;;15.70;99.90;;;;;;5084511;28;20024;-79
2021/08/07 03:43:25;;;;;;;3.45;0.93;;;15.70;99.90;;;;;;5087038;28;20038;-79
2021/08/07 03:45:52;;;;;;;4.47;0.88;;;15.70;99.90;;;;;;5085136;28;20035;-79
2021/08/07 03:48:21;;;;;;;2.75;1.25;;;15.60;99.90;;;;;;5086942;28;20036;-79
2021/08/07 03:50:50;;;;;;;2.75;1.10;;;15.60;99.90;;;;;;5082667;28;20043;-79
2021/08/07 03:53:24;;;;;;;3.08;1.40;;;15.60;99.90;;;;;;5086004;28;20407;-79
2021/08/07 03:55:53;;;;;;;2.90;0.80;;;15.60;99.90;;;;;;5070121;28;20522;-79
2021/08/07 03:58:20;;;;;;;5.57;1.50;;;15.60;99.90;;;;;;5070433;28;20051;-79
2021/08/07 04:00:55;;;;;;;4.53;1.20;;;15.60;99.90;;;;;;5089111;28;20040;-79
2021/08/07 04:03:29;;;;;;;2.25;1.00;;;15.60;99.90;;;;;;5074615;28;20058;-79
2021/08/07 04:05:58;;;;;;;3.40;1.30;;;15.70;99.90;;;;;;5072044;28;20055;-79
2021/08/07 04:08:26;;;;;;;3.33;0.80;;;15.70;99.90;;;;;;5090391;28;20066;-79
2021/08/07 04:10:53;;;;;;;4.28;1.00;;;15.80;99.90;;;;;;5072828;28;20397;-79
2021/08/07 04:13:20;;;;;;;2.47;0.90;;;15.80;99.90;;;;;;5090242;28;20031;-79
2021/08/07 04:15:48;;;;;;;3.08;0.80;;;15.90;99.90;;;;;;5072807;28;20040;-79
2021/08/07 04:18:14;;;;;;;4.57;1.35;;;15.90;99.90;;;;;;5056811;28;20047;-80
2021/08/07 04:20:43;;;;;;;2.58;1.30;;;15.90;99.90;;;;;;5088974;28;20363;-79
2021/08/07 04:23:10;;;;;;;4.57;1.15;;;16.00;99.90;;;;;;5090990;28;20031;-79
2021/08/07 04:25:40;;;;;;;2.83;1.15;;;16.00;99.90;;;;;;5072922;28;20051;-80
2021/08/07 04:28:07;;;;;;;3.92;1.00;;;16.10;99.90;;;;;;5090284;28;20402;-80
2021/08/07 04:30:34;;;;;;;4.05;1.10;;;16.10;99.90;;;;;;5089628;27;20028;-79
2021/08/07 04:33:03;;;;;;;3.75;0.85;;;16.10;99.90;;;;;;5074097;28;20154;-80
2021/08/07 04:35:34;;;;;;;1.65;0.90;;;16.20;99.90;;;;;;5088137;28;20049;-80
2021/08/07 04:38:02;;;;;;;2.90;0.70;;;16.20;99.90;;;;;;5067655;28;20048;-79
2021/08/07 04:40:32;;;;;;;3.65;0.90;;;16.20;99.90;;;;;;5071644;28;20046;-80
2021/08/07 04:43:07;;;;;;;2.97;0.70;;;16.20;99.90;;;;;;5053985;28;20062;-80
2021/08/07 04:45:34;;;;;;;4.13;0.80;;;16.20;99.90;;;;;;5053948;28;20059;-80
2021/08/07 04:48:07;;;;;;;2.03;0.80;;;16.20;99.90;;;;;;5070489;28;20039;-76
2021/08/07 04:50:44;;;;;;;2.83;1.10;;;16.30;99.90;;;;;;5086421;28;20035;-75
2021/08/07 04:53:11;;;;;;;2.25;0.93;;;16.30;99.90;;;;;;5053475;28;20048;-75
2021/08/07 04:55:41;;;;;;;2.53;1.15;;;16.30;99.90;;;;;;5066695;28;20059;-75
2021/08/07 04:58:10;;;;;;;3.00;0.80;;;16.30;99.90;;;;;;5070841;28;20053;-75
2021/08/07 05:00:38;;;;;;;6.25;1.50;;;16.30;99.90;;;;;;5074202;28;20042;-75
2021/08/07 05:03:05;;;;;;;2.85;0.90;;;16.30;99.90;;;;;;5086202;28;20050;-75
2021/08/07 05:05:35;;;;;;;2.25;1.00;;;16.40;99.90;;;;;;5085442;28;20487;-75
2021/08/07 05:08:02;;;;;;;2.67;0.90;;;16.40;99.90;;;;;;5105515;28;20035;-75
2021/08/07 05:10:30;;;;;;;4.53;1.33;;;16.40;99.90;;;;;;5069929;28;20054;-75
2021/08/07 05:12:58;;;;;;;4.10;0.88;;;16.60;99.90;;;;;;5071890;28;20487;-75
2021/08/07 05:15:24;;;;;;;4.75;1.10;;;16.70;99.90;;;;;;5085760;28;20039;-75
2021/08/07 05:17:54;;;;;;;4.95;1.20;;;16.80;99.90;;;;;;5071984;28;20054;-76
2021/08/07 05:20:21;;;;;;;2.67;1.00;;;16.90;99.90;;;;;;5069493;28;20039;-75
2021/08/07 05:22:47;;;;;;;4.20;0.93;;;17.10;99.90;;;;;;5070294;28;20047;-75
2021/08/07 05:25:15;;;;;;;4.30;1.02;;;17.20;99.90;;;;;;5070181;28;20035;-75
2021/08/07 05:27:42;;;;;;;2.88;1.08;;;17.30;99.90;;;;;;5055056;28;20613;-75
2021/08/07 05:30:10;;;;;;;4.72;0.90;;;17.40;99.90;;;;;;5086860;28;21049;-75
2021/08/07 05:32:39;;;;;;;3.15;1.10;;;17.50;99.90;;;;;;5068489;28;20151;-75
2021/08/07 05:35:07;;;;;;;4.05;1.00;;;17.50;99.90;;;;;;5068962;28;20501;-75
2021/08/07 05:37:40;;;;;;;3.08;0.70;;;17.50;99.90;;;;;;5104878;27;20048;-75
2021/08/07 05:40:09;;;;;;;3.05;1.20;;;17.60;99.90;;;;;;5068353;28;20043;-75
2021/08/07 05:42:38;;;;;;;4.07;1.25;;;17.60;99.90;;;;;;5084789;28;20047;-75
2021/08/07 05:45:06;;;;;;;4.22;1.10;;;17.60;99.90;;;;;;5069732;28;20105;-80
2021/08/07 05:47:33;;;;;;;3.78;0.82;;;17.70;99.90;;;;;;5087035;28;20047;-75
2021/08/07 05:50:03;;;;;;;2.55;0.70;;;17.80;99.90;;;;;;5069486;28;20538;-75
2021/08/07 05:52:29;;;;;;;2.47;0.70;;;17.90;99.90;;;;;;5069841;28;20035;-79
2021/08/07 05:54:59;;;;;;;2.70;0.80;;;18.10;99.90;;;;;;5086110;28;20024;-75
2021/08/07 05:57:27;;;;;;;3.92;0.90;;;18.10;99.90;;;;;;5068492;28;20048;-75
2021/08/07 05:59:53;;;;;;;2.63;0.70;;;18.20;99.90;;;;;;5051967;28;20039;-75
2021/08/07 06:02:20;;;;;;;3.13;0.70;;;18.20;99.90;;;;;;5085144;28;20410;-75
2021/08/07 06:04:50;;;;;;;3.83;0.80;;;18.20;99.90;;;;;;5085701;28;20040;-75
2021/08/07 06:07:18;;;;;;;3.38;0.60;;;18.20;99.90;;;;;;5071196;28;20051;-80
2021/08/07 06:09:45;;;;;;;2.90;0.63;;;18.20;99.90;;;;;;5088024;28;20050;-80
2021/08/07 06:12:13;;;;;;;3.22;0.75;;;18.10;99.90;;;;;;5087934;28;20050;-80
2021/08/07 06:14:40;;;;;;;2.30;0.60;;;18.10;99.90;;;;;;5087313;28;20031;-80
2021/08/07 06:17:08;;;;;;;3.75;0.98;;;18.00;99.90;;;;;;5055814;28;20036;-79
2021/08/07 06:19:37;;;;;;;2.17;0.60;;;18.00;99.90;;;;;;5084753;28;20031;-79
2021/08/07 06:22:04;;;;;;;3.50;0.93;;;18.10;99.90;;;;;;5105582;28;20778;-79
2021/08/07 06:24:31;;;;;;;3.10;0.93;;;18.20;99.90;;;;;;5070766;28;20039;-79
2021/08/07 06:26:57;;;;;;;5.60;1.15;;;18.40;99.90;;;;;;5087827;28;20089;-79
2021/08/07 06:29:24;;;;;;;2.63;0.70;;;18.50;99.90;;;;;;5106176;28;20034;-80
2021/08/07 06:31:51;;;;;;;6.07;0.80;;;18.50;99.90;;;;;;5087157;28;20500;-80
2021/08/07 06:34:18;;;;;;;4.50;0.70;;;18.60;99.90;;;;;;5088315;28;20039;-80
2021/08/07 06:36:45;;;;;;;6.10;0.98;;;18.70;99.90;;;;;;5071675;28;20394;-79
2021/08/07 06:39:12;;;;;;;5.82;0.70;;;18.90;99.90;;;;;;5087895;28;20364;-79
2021/08/07 06:41:38;;;;;;;3.85;0.60;;;19.30;99.90;;;;;;5053155;28;20509;-80
2021/08/07 06:44:10;;;;;;;3.65;0.63;;;19.80;99.90;;;;;;5072210;28;20040;-80
2021/08/07 06:46:39;;;;;;;3.53;0.73;;;20.30;99.90;;;;;;5058671;28;20051;-80
2021/08/07 06:49:07;;;;;;;1.98;0.40;;;20.60;99.90;;;;;;5075178;28;20036;-79
2021/08/07 06:51:34;;;;;;;3.88;0.60;;;20.80;99.90;;;;;;5073866;28;20039;-80
2021/08/07 06:54:02;;;;;;;5.05;0.60;;;21.00;99.90;;;;;;5074814;28;20062;-77
2021/08/07 06:56:30;;;;;;;2.28;0.70;;;21.20;99.90;;;;;;5057396;28;20494;-77
2021/08/07 06:59:00;;;;;;;5.28;0.70;;;21.40;99.90;;;;;;5041169;28;20044;-80
2021/08/07 07:01:26;;;;;;;2.20;0.50;;;21.40;99.90;;;;;;5054554;28;20395;-80
2021/08/07 07:03:53;;;;;;;4.05;0.60;;;21.30;99.90;;;;;;5074941;28;20032;-80
2021/08/07 07:06:20;;;;;;;2.25;0.90;;;21.40;99.90;;;;;;5075954;28;20509;-80
2021/08/07 07:08:48;;;;;;;5.18;1.17;;;21.60;99.90;;;;;;5090485;28;20047;-80
2021/08/07 07:11:16;;;;;;;2.92;1.02;;;21.80;99.90;;;;;;5039070;28;20043;-79
2021/08/07 07:13:43;;;;;;;3.33;0.52;;;22.00;99.30;;;;;;5091471;28;20035;-79
2021/08/07 07:16:10;;;;;;;2.50;0.60;;;22.20;98.60;;;;;;5055758;28;20048;-80
2021/08/07 07:18:36;;;;;;;2.15;0.40;;;22.30;98.00;;;;;;5090042;28;20031;-77
2021/08/07 07:21:03;;;;;;;2.30;0.40;;;22.40;97.60;;;;;;5071747;28;20391;-78
2021/08/07 07:23:29;;;;;;;2.83;0.40;;;22.50;96.30;;;;;;5056924;28;20050;-82
2021/08/07 07:25:57;;;;;;;2.88;0.45;;;22.60;95.50;;;;;;5057809;28;20039;-82
2021/08/07 07:28:23;;;;;;;2.45;0.60;;;22.50;95.30;;;;;;5074100;28;20027;-81
2021/08/07 07:30:50;;;;;;;1.15;0.30;;;22.40;95.20;;;;;;5090429;28;20035;-81
2021/08/07 07:33:19;;;;;;;2.35;0.32;;;22.40;95.20;;;;;;5073552;28;20046;-82
2021/08/07 07:35:46;;;;;;;1.25;0.30;;;22.40;94.80;;;;;;5107548;28;20071;-81
2021/08/07 07:38:12;;;;;;;2.17;0.35;;;22.50;94.80;;;;;;5107545;28;20034;-83
2021/08/07 07:40:40;;;;;;;1.27;0.20;;;22.70;94.60;;;;;;5056292;28;20035;-77
2021/08/07 07:43:08;;;;;;;2.22;0.38;;;22.80;94.20;;;;;;5088218;28;20053;-78
2021/08/07 07:45:35;;;;;;;1.35;0.32;;;22.90;93.90;;;;;;5053505;28;20039;-75
2021/08/07 07:48:04;;;;;;;2.05;0.40;;;23.10;93.80;;;;;;5088765;28;20039;-80
2021/08/07 07:50:30;;;;;;;3.70;0.60;;;23.10;93.30;;;;;;5089603;28;20570;-82
2021/08/07 07:52:59;;;;;;;3.28;0.40;;;23.20;93.20;;;;;;5090201;28;21312;-80
2021/08/07 07:55:30;;;;;;;2.28;0.40;;;23.20;92.70;;;;;;5089311;28;20028;-79
2021/08/07 07:58:02;;;;;;;3.75;0.50;;;23.20;91.90;;;;;;5094269;27;20053;-80
2021/08/07 08:00:31;;;;;;;3.83;0.40;;;23.20;92.10;;;;;;5072324;28;20035;-79
2021/08/07 08:03:00;;;;;;;2.30;0.40;;;23.10;91.40;;;;;;5089989;28;20048;-80
2021/08/07 08:05:36;;;;;;;2.45;0.30;;;23.20;91.00;;;;;;5048774;28;20027;-79
2021/08/07 08:08:07;;;;;;;2.47;0.40;;;23.30;90.70;;;;;;5088320;28;20046;-80
2021/08/07 08:10:36;;;;;;;3.08;0.50;;;23.40;90.40;;;;;;5088040;28;20046;-79
2021/08/07 08:13:06;;;;;;;2.08;0.30;;;23.50;90.00;;;;;;5056635;28;20047;-79
2021/08/07 08:15:40;;;;;;;1.92;0.28;;;23.70;89.70;;;;;;5072494;28;20047;-79
2021/08/07 08:18:08;;;;;;;4.10;0.60;;;24.00;88.80;;;;;;5072035;28;20114;-76
2021/08/07 08:20:38;;;;;;;2.20;0.43;;;24.20;88.80;;;;;;5068982;28;20043;-76
2021/08/07 08:23:05;;;;;;;2.33;0.38;;;24.40;89.60;;;;;;5087908;28;20580;-77
2021/08/07 08:25:32;;;;;;;3.65;0.60;;;24.60;89.30;;;;;;5086223;28;20035;-76
2021/08/07 08:27:59;;;;;;;2.08;0.38;;;24.70;87.80;;;;;;5087293;28;20043;-76
2021/08/07 08:30:27;;;;;;;4.68;0.40;;;24.60;87.30;;;;;;5069318;28;20040;-75
2021/08/07 08:32:54;;;;;;;1.75;0.60;;;24.50;88.00;;;;;;5071067;28;20499;-76
2021/08/07 08:35:22;;;;;;;2.15;0.45;;;24.40;87.80;;;;;;5075696;28;20612;-76
2021/08/07 08:37:50;;;;;;;2.70;0.50;;;24.40;88.40;;;;;;5070490;28;20035;-76
2021/08/07 08:40:17;;;;;;;1.85;0.52;;;24.40;88.30;;;;;;5087613;28;20032;-75
2021/08/07 08:42:45;;;;;;;4.05;0.75;;;24.50;87.80;;;;;;5053659;28;20043;-76
2021/08/07 08:45:11;;;;;;;1.52;0.40;;;24.50;87.70;;;;;;5069790;28;20028;-75
2021/08/07 08:47:40;;;;;;;3.10;0.60;;;24.60;88.20;;;;;;5086983;28;20443;-76
2021/08/07 08:50:08;;;;;;;5.97;0.70;;;24.70;87.40;;;;;;5087722;28;20039;-76
2021/08/07 08:52:38;;;;;;;2.47;0.52;;;24.80;86.10;;;;;;5087048;28;20054;-77
2021/08/07 08:55:07;;;;;;;4.13;0.60;;;24.90;86.20;;;;;;5068961;28;20044;-76
2021/08/07 08:57:34;;;;;;;1.83;0.40;;;24.90;85.20;;;;;;5069851;28;20055;-75
2021/08/07 09:00:01;;;;;;;3.10;0.50;;;24.90;85.00;;;;;;5069870;28;20486;-77
2021/08/07 09:02:30;;;;;;;2.03;0.50;;;24.90;84.30;;;;;;5053719;28;20044;-78
2021/08/07 09:04:57;;;;;;;2.67;0.50;;;24.90;84.80;;;;;;5088847;28;20042;-78
2021/08/07 09:07:24;;;;;;;2.67;0.50;;;24.90;84.50;;;;;;5087322;28;20036;-78
2021/08/07 09:09:55;;;;;;;3.20;0.63;;;24.80;84.70;;;;;;5070804;28;20042;-75
2021/08/07 09:12:51;;;;;;;6.28;0.70;;;24.70;84.80;;;;;;5069734;28;20031;-77
2021/08/07 09:15:27;;;;;;;3.17;0.60;;;24.60;85.40;;;;;;5085835;28;20043;-76
2021/08/07 09:18:23;;;;;;;4.55;0.90;;;24.40;84.60;;;;;;5087310;28;20040;-77
2021/08/07 09:21:16;;;;;;;2.97;0.50;;;24.20;84.30;;;;;;5068613;28;20052;-75
2021/08/07 09:23:45;;;;;;;1.30;0.50;;;24.20;86.00;;;;;;5087463;28;20509;-80
2021/08/07 09:26:21;;;;;;;2.53;0.40;;;24.30;86.10;;;;;;5053159;28;20047;-79
2021/08/07 09:28:58;;;;;;;2.97;0.75;;;24.40;85.90;;;;;;5087270;28;20482;-81
2021/08/07 09:31:33;;;;;;;5.57;0.43;;;24.40;85.00;;;;;;5069075;28;20048;-83
2021/08/07 09:34:20;;;;;;;3.40;0.50;;;24.20;84.80;;;;;;5087416;28;20032;-79
2021/08/07 09:36:53;;;;;;;4.00;0.50;;;24.20;86.10;;;;;;5085943;28;20028;-80
2021/08/07 09:39:54;;;;;;;2.50;0.70;;;24.20;86.20;;;;;;5055044;28;20027;-78
2021/08/07 09:42:27;;;;;;;5.07;0.52;;;24.20;86.20;;;;;;5021169;28;20050;-79
2021/08/07 09:45:06;;;;;;;1.85;0.50;;;24.20;85.80;;;;;;5070833;28;20055;-78
2021/08/07 09:47:41;;;;;;;3.22;0.50;;;24.20;86.10;;;;;;5069592;28;20624;-82
2021/08/07 09:50:21;;;;;;;0.82;0.30;;;24.10;86.40;;;;;;5086539;28;20034;-80
2021/08/07 09:52:48;;;;;;;1.92;0.50;;;23.90;86.90;;;;;;5085581;28;20038;-76
2021/08/07 09:55:15;;;;;;;3.45;0.47;;;23.70;87.50;;;;;;5065289;28;20066;-75
2021/08/07 09:57:42;;;;;;;2.60;0.50;;;23.80;88.20;;;;;;5105395;28;20035;-77
2021/08/07 10:00:09;;;;;;;2.80;0.40;;;23.90;88.20;;;;;;5070083;28;20399;-77
2021/08/07 10:02:42;;;;;;;2.78;0.60;;;24.00;88.70;;;;;;5069378;28;20044;-76
2021/08/07 10:05:24;;;;;;;1.95;0.60;;;24.20;88.60;;;;;;5085963;28;20470;-75
2021/08/07 10:08:03;;;;;;;1.60;0.60;;;24.50;87.60;;;;;;5067449;28;20410;-76
2021/08/07 10:10:39;;;;;;;3.85;0.60;;;24.60;86.70;;;;;;5085613;28;20362;-77
2021/08/07 10:13:09;;;;;;;2.30;0.32;;;24.80;86.50;;;;;;5069580;28;20039;-76
2021/08/07 10:15:44;;;;;;;3.92;1.33;;;24.90;86.10;;;;;;5068303;28;20059;-77
2021/08/07 10:18:11;;;;;;;3.75;1.30;;;24.90;84.40;;;;;;5084783;28;20050;-77
2021/08/07 10:20:41;;;;;;;2.53;0.60;;;24.60;84.80;;;;;;5085787;28;20501;-75
2021/08/07 10:23:08;;;;;;;3.28;0.60;;;24.20;85.30;;;;;;5069405;28;20474;-76
2021/08/07 10:25:41;;;;;;;3.13;0.60;;;24.10;86.20;;;;;;5103346;28;20031;-77
2021/08/07 10:28:09;;;;;;;1.92;0.40;;;24.10;86.30;;;;;;5068846;28;20066;-76
2021/08/07 10:30:37;;;;;;;3.80;0.70;;;24.20;86.50;;;;;;5085596;28;20050;-76
2021/08/07 10:33:05;;;;;;;2.45;0.40;;;24.30;86.40;;;;;;5071899;28;20707;-76
2021/08/07 10:35:32;;;;;;;6.90;0.50;;;24.60;85.60;;;;;;5085375;28;20035;-76
2021/08/07 10:38:00;;;;;;;2.65;0.65;;;25.00;83.90;;;;;;5068071;28;20525;-77
2021/08/07 10:40:28;;;;;;;3.72;0.90;;;25.20;84.70;;;;;;5084632;28;20035;-77
2021/08/07 10:42:57;;;;;;;5.22;0.60;;;25.60;84.30;;;;;;5069447;28;20487;-77
2021/08/07 10:45:24;;;;;;;4.32;0.80;;;26.10;83.00;;;;;;5067019;28;20048;-77
2021/08/07 10:47:51;;;;;;;4.32;0.70;;;26.30;80.90;;;;;;5086893;28;20479;-76
2021/08/07 10:50:26;;;;;;;2.75;0.60;;;26.50;79.90;;;;;;5069138;28;20616;-78
2021/08/07 10:52:59;;;;;;;4.90;0.80;;;26.40;79.60;;;;;;5071611;28;20532;-78
2021/08/07 10:55:52;;;;;;;3.50;0.50;;;26.10;78.70;;;;;;5067607;28;20050;-78
2021/08/07 10:58:36;;;;;;;4.35;0.60;;;25.70;78.60;;;;;;5103668;28;20036;-78
2021/08/07 11:01:21;;;;;;;4.70;0.60;;;25.30;79.50;;;;;;5083816;28;20038;-78
2021/08/07 11:03:49;;;;;;;2.67;0.60;;;25.10;80.60;;;;;;5086997;28;20509;-75
2021/08/07 11:06:16;;;;;;;3.20;0.82;;;25.50;80.40;;;;;;5103515;28;20462;-78
2021/08/07 11:08:56;;;;;;;2.70;0.60;;;26.20;79.60;;;;;;5084872;28;20036;-77
2021/08/07 11:11:29;;;;;;;4.38;1.08;;;26.70;77.70;;;;;;5085624;28;20471;-77
2021/08/07 11:14:21;;;;;;;2.17;0.40;;;27.40;76.20;;;;;;5086486;28;20040;-78
2021/08/07 11:17:17;;;;;;;2.85;0.50;;;28.10;75.10;;;;;;5035369;28;20043;-78
2021/08/07 11:20:14;;;;;;;3.22;0.60;;;28.70;72.80;;;;;;5082550;28;20047;-78
2021/08/07 11:22:42;;;;;;;2.35;0.40;;;29.00;71.10;;;;;;5101714;28;20035;-77
2021/08/07 11:25:20;;;;;;;2.30;0.50;;;29.20;69.40;;;;;;5084309;28;20036;-78
2021/08/07 11:30:18;;;;;;;2.88;0.47;;;29.50;68.80;;;;;;5070284;28;20035;-78
2021/08/07 11:33:01;;;;;;;1.52;0.40;;;29.80;66.40;;;;;;5088795;28;20038;-78
2021/08/07 11:35:30;;;;;;;;;;;29.90;64.50;;;;;;5054098;28;20379;-78
2021/08/07 11:38:06;;;;;;;1.95;0.40;;;30.10;64.50;;;;;;5088165;28;19926;-78
2021/08/07 11:40:45;;;;;;;2.35;0.70;;;30.40;62.30;;;;;;5070573;28;20394;-78
2021/08/07 11:43:23;;;;;;;1.30;0.40;;;30.70;61.60;;;;;;5088637;28;20058;-78
2021/08/07 11:45:55;;;;;;;1.50;0.40;;;31.00;61.20;;;;;;5105105;28;20023;-78
2021/08/07 11:48:24;;;;;;;2.10;0.40;;;31.50;58.60;;;;;;5105715;28;20031;-78
2021/08/07 11:50:51;;;;;;;3.10;0.60;;;31.10;57.30;;;;;;5086716;28;20036;-78
2021/08/07 11:53:19;;;;;;;2.92;0.55;;;30.90;57.50;;;;;;5088228;28;20070;-79
2021/08/07 11:55:56;;;;;;;3.17;0.77;;;30.90;56.80;;;;;;5087723;28;20492;-76
2021/08/07 11:58:22;;;;;;;2.13;0.60;;;31.00;56.30;;;;;;5086987;28;20035;-76
2021/08/07 12:00:49;;;;;;;3.53;0.60;;;31.00;56.70;;;;;;5085731;28;20062;-76
2021/08/07 12:03:17;;;;;;;1.60;0.40;;;31.50;56.60;;;;;;5105836;28;20052;-75
2021/08/07 12:05:55;;;;;;;4.30;0.52;;;31.80;55.40;;;;;;5087536;28;20036;-76
2021/08/07 12:08:24;;;;;;;3.33;0.70;;;31.80;54.50;;;;;;5071988;28;20055;-76
2021/08/07 12:10:50;;;;;;;3.70;0.47;;;31.60;54.70;;;;;;5106134;28;20039;-75
2021/08/07 12:13:35;;;;;;;1.67;0.40;;;31.20;55.50;;;;;;5091166;28;20035;-76
2021/08/07 12:16:05;;;;;;;2.80;0.65;;;31.10;54.90;;;;;;5070243;28;20066;-76
2021/08/07 12:18:40;;;;;;;2.97;0.40;;;31.50;54.00;;;;;;5087219;28;20067;-75
2021/08/07 12:21:08;;;;;;;1.15;0.38;;;31.80;52.50;;;;;;5070043;28;20394;-75
2021/08/07 12:23:45;;;;;;;1.83;0.45;;;32.20;50.40;;;;;;5107759;27;20046;-76
2021/08/07 12:26:14;;;;;;;2.28;0.40;;;32.70;49.10;;;;;;5087487;28;20031;-76
2021/08/07 12:28:41;;;;;;;1.67;0.40;;;33.10;48.90;;;;;;5088304;28;20387;-76
2021/08/07 12:31:07;;;;;;;2.90;0.40;;;33.10;48.90;;;;;;5105930;28;20406;-75
2021/08/07 12:33:41;;;;;;;1.42;0.45;;;33.10;47.50;;;;;;5071213;28;20043;-76
2021/08/07 12:36:20;;;;;;;1.48;0.43;;;32.90;47.20;;;;;;5087292;28;20394;-75
2021/08/07 12:38:50;;;;;;;2.60;0.60;;;32.90;47.80;;;;;;5106528;28;20051;-75
2021/08/07 12:41:21;;;;;;;3.22;0.50;;;32.80;47.70;;;;;;5106104;28;20043;-75
2021/08/07 12:43:48;;;;;;;0.68;0.30;;;32.10;48.20;;;;;;5088365;28;20046;-75
2021/08/07 12:46:20;;;;;;;1.48;0.35;;;31.70;48.50;;;;;;5086851;28;20046;-75
2021/08/07 12:48:56;;;;;;;2.05;0.30;;;31.70;47.80;;;;;;5088109;28;20036;-76
2021/08/07 12:51:22;;;;;;;1.38;0.35;;;32.00;47.30;;;;;;5053502;28;20489;-75
2021/08/07 12:53:49;;;;;;;1.25;0.40;;;32.10;46.20;;;;;;5105661;28;20032;-75
2021/08/07 12:56:15;;;;;;;2.55;0.50;;;31.80;46.80;;;;;;5069373;28;20406;-75
2021/08/07 12:59:06;;;;;;;2.08;0.60;;;31.50;47.90;;;;;;5070623;28;20050;-75
2021/08/07 13:01:38;;;;;;;1.50;0.30;;;31.70;49.20;;;;;;5056878;28;20043;-75
2021/08/07 13:04:08;;;;;;;3.42;0.40;;;32.40;47.90;;;;;;5070093;28;20048;-75
2021/08/07 13:06:58;;;;;;;2.08;0.32;;;32.60;47.10;;;;;;5068397;28;20036;-75
2021/08/07 13:09:26;;;;;;;2.15;0.40;;;32.20;47.30;;;;;;5105862;28;20051;-75